Time;durP1;ratioP1;P1;durP2;ratioP2;P2;SDS_P1;SDS_P2;PMS_P1;PMS_P2;Temp;Humidity;BMP_temperature;BMP_pressure;BME280_temperature;BME280_humidity;BME280_pressure;Samples;Min_cycle;Max_cycle;Signal;HPM_P1;HPM_P2
2021/11/06 00:00:08;;;;;;;15.35;11.12;;;;;;;6.57;84.46;101374.84;1738942;82;21088;-86
2021/11/06 00:02:36;;;;;;;15.93;10.98;;;;;;;6.57;84.50;101373.52;1738834;82;21034;-86
2021/11/06 00:05:02;;;;;;;16.12;12.00;;;;;;;6.56;84.50;101391.22;1738186;81;21038;-85
2021/11/06 00:07:28;;;;;;;17.55;10.88;;;;;;;6.54;84.52;101394.48;1738115;82;21009;-86
2021/11/06 00:09:55;;;;;;;17.12;11.43;;;;;;;6.51;84.55;101402.17;1738275;82;21181;-86
2021/11/06 00:12:21;;;;;;;17.37;12.13;;;;;;;6.46;84.57;101403.03;1741000;81;21067;-86
2021/11/06 00:14:47;;;;;;;18.45;12.20;;;;;;;6.44;84.59;101404.09;1739729;82;21465;-86
2021/11/06 00:17:13;;;;;;;18.95;12.65;;;;;;;6.40;84.63;101406.13;1739625;82;20992;-86
2021/11/06 00:19:39;;;;;;;18.23;11.48;;;;;;;6.40;84.64;101397.36;1739542;82;20892;-86
2021/11/06 00:22:05;;;;;;;18.70;11.65;;;;;;;6.37;84.64;101389.15;1739439;82;21144;-86
2021/11/06 00:24:31;;;;;;;18.42;11.30;;;;;;;6.36;84.68;101391.94;1739488;82;20987;-87
2021/11/06 00:26:57;;;;;;;19.98;11.25;;;;;;;6.35;84.70;101399.03;1739656;82;21015;-87
2021/11/06 00:29:23;;;;;;;17.55;11.85;;;;;;;6.33;84.71;101398.29;1739658;82;21058;-88
2021/11/06 00:31:49;;;;;;;21.10;12.50;;;;;;;6.32;84.71;101401.08;1739645;82;21007;-87
2021/11/06 00:34:15;;;;;;;19.85;10.80;;;;;;;6.27;84.75;101400.09;1739710;82;21050;-87
2021/11/06 00:36:41;;;;;;;14.83;10.78;;;;;;;6.25;84.77;101407.33;1739236;82;21061;-87
2021/11/06 00:39:07;;;;;;;18.90;11.53;;;;;;;6.23;84.78;101399.96;1739546;82;21507;-86
2021/11/06 00:41:33;;;;;;;16.67;11.38;;;;;;;6.22;84.78;101410.22;1739578;82;21483;-86
2021/11/06 00:43:59;;;;;;;17.23;10.98;;;;;;;6.21;84.79;101407.20;1739594;82;21070;-86
2021/11/06 00:46:25;;;;;;;17.77;12.03;;;;;;;6.21;84.80;101404.55;1739691;82;21159;-86
2021/11/06 00:48:52;;;;;;;18.92;11.83;;;;;;;6.24;84.82;101414.91;1739343;82;20984;-86
2021/11/06 00:51:17;;;;;;;18.98;12.40;;;;;;;6.26;84.81;101410.31;1739778;82;20928;-85
2021/11/06 00:53:44;;;;;;;18.42;11.85;;;;;;;6.30;84.84;101415.75;1739242;82;21011;-85
2021/11/06 00:56:10;;;;;;;17.15;10.93;;;;;;;6.31;84.83;101413.47;1739607;81;21624;-85
2021/11/06 00:58:36;;;;;;;17.80;11.28;;;;;;;6.31;84.82;101405.52;1739629;82;21959;-86
2021/11/06 01:01:02;;;;;;;18.85;10.88;;;;;;;6.33;84.85;101414.19;1739417;81;20923;-86
2021/11/06 01:03:28;;;;;;;17.05;10.45;;;;;;;6.32;84.86;101413.84;1739337;81;21043;-86
2021/11/06 01:05:54;;;;;;;18.27;10.72;;;;;;;6.32;84.88;101413.84;1739517;82;21032;-86
2021/11/06 01:08:20;;;;;;;16.52;10.43;;;;;;;6.33;84.88;101416.83;1739673;82;21019;-85
2021/11/06 01:10:46;;;;;;;15.03;10.00;;;;;;;6.34;84.89;101412.38;1739098;82;21168;-85
2021/11/06 01:13:12;;;;;;;17.80;10.38;;;;;;;6.34;84.89;101414.55;1739630;82;21055;-86
2021/11/06 01:15:38;;;;;;;18.55;10.23;;;;;;;6.36;84.90;101413.13;1739551;82;20994;-86
2021/11/06 01:18:04;;;;;;;16.17;10.48;;;;;;;6.38;84.90;101423.11;1739545;82;21003;-85
2021/11/06 01:20:31;;;;;;;14.35;9.70;;;;;;;6.36;84.89;101416.63;1739483;81;21097;-85
2021/11/06 01:22:58;;;;;;;18.95;11.05;;;;;;;6.35;84.91;101417.58;1739513;81;21792;-85
2021/11/06 01:25:24;;;;;;;17.70;10.68;;;;;;;6.34;84.89;101422.98;1739540;82;20972;-85
2021/11/06 01:27:50;;;;;;;18.25;9.78;;;;;;;6.33;84.89;101421.31;1739526;81;20912;-86
2021/11/06 01:30:16;;;;;;;22.30;11.38;;;;;;;6.32;84.89;101418.30;1697091;84;21008;-87
2021/11/06 01:32:45;;;;;;;16.35;10.10;;;;;;;6.30;84.87;101419.72;1739647;82;21047;-86
2021/11/06 01:35:11;;;;;;;17.77;9.68;;;;;;;6.31;84.89;101421.42;1739176;82;21140;-86
2021/11/06 01:37:37;;;;;;;16.62;9.73;;;;;;;6.31;84.89;101419.25;1696944;84;21000;-86
2021/11/06 01:40:06;;;;;;;18.40;10.03;;;;;;;6.31;84.87;101416.12;1697047;84;21499;-86
2021/11/06 01:42:32;;;;;;;20.02;10.82;;;;;;;6.32;84.88;101412.52;1739662;82;21043;-86
2021/11/06 01:44:58;;;;;;;16.70;10.50;;;;;;;6.31;84.84;101406.85;1739401;81;20884;-86
2021/11/06 01:47:24;;;;;;;16.42;9.63;;;;;;;6.27;84.87;101412.02;1739619;82;21043;-86
2021/11/06 01:49:50;;;;;;;19.15;10.13;;;;;;;6.26;84.86;101409.50;1696705;84;21011;-86
2021/11/06 01:52:16;;;;;;;16.07;9.90;;;;;;;6.23;84.85;101410.55;1739529;82;21034;-86
2021/11/06 01:54:42;;;;;;;15.05;9.53;;;;;;;6.23;84.84;101405.26;1739609;82;21476;-86
2021/11/06 01:57:08;;;;;;;19.02;9.90;;;;;;;6.21;84.83;101409.84;1697065;83;21086;-86
2021/11/06 01:59:34;;;;;;;15.78;8.75;;;;;;;6.19;84.82;101399.86;1739586;82;21150;-86
2021/11/06 02:02:00;;;;;;;14.80;8.93;;;;;;;6.21;84.82;101405.02;1696693;83;21474;-85
2021/11/06 02:04:27;;;;;;;21.37;10.10;;;;;;;6.23;84.83;101404.41;1739451;82;21050;-85
2021/11/06 02:06:53;;;;;;;16.60;9.38;;;;;;;6.24;84.81;101408.28;1739337;82;21581;-85
2021/11/06 02:09:19;;;;;;;16.37;9.18;;;;;;;6.22;84.80;101407.56;1739415;81;21059;-85
2021/11/06 02:11:45;;;;;;;17.42;9.58;;;;;;;6.22;84.79;101411.54;1696949;84;21159;-84
2021/11/06 02:14:11;;;;;;;18.73;10.38;;;;;;;6.22;84.78;101416.84;1696803;84;21547;-85
2021/11/06 02:16:37;;;;;;;17.15;9.20;;;;;;;6.22;84.78;101416.84;1739524;82;21050;-85
2021/11/06 02:19:04;;;;;;;16.70;9.33;;;;;;;6.21;84.79;101419.11;1739383;81;21007;-85
2021/11/06 02:21:30;;;;;;;18.98;10.60;;;;;;;6.22;84.76;101422.13;1696886;84;21487;-86
2021/11/06 02:23:56;;;;;;;18.32;10.70;;;;;;;6.20;84.75;101431.98;1739430;81;21682;-86
2021/11/06 02:26:22;;;;;;;20.00;10.43;;;;;;;6.21;84.74;101423.09;1739470;82;21023;-87
2021/11/06 02:28:53;;;;;;;17.80;10.43;;;;;;;6.23;84.75;101426.45;1739410;81;21023;-87
2021/11/06 02:31:20;;;;;;;21.00;11.25;;;;;;;6.24;84.73;101424.65;1739628;82;21058;-86
2021/11/06 02:33:48;;;;;;;18.20;11.05;;;;;;;6.23;84.72;101422.95;1739630;81;21046;-86
2021/11/06 02:36:14;;;;;;;20.35;10.45;;;;;;;6.25;84.73;101417.92;1696562;82;21159;-86
2021/11/06 02:38:41;;;;;;;19.73;11.18;;;;;;;6.26;84.72;101424.89;1739503;82;21558;-86
2021/11/06 02:41:07;;;;;;;16.65;9.05;;;;;;;6.26;84.74;101426.21;1739457;82;21039;-86
2021/11/06 02:43:34;;;;;;;19.35;10.40;;;;;;;6.25;84.71;101424.55;1739485;82;21067;-85
2021/11/06 02:46:00;;;;;;;19.45;10.48;;;;;;;6.23;84.72;101430.42;1739397;81;21046;-86
2021/11/06 02:48:26;;;;;;;18.20;9.48;;;;;;;6.20;84.72;101433.78;1739228;81;21182;-86
2021/11/06 02:50:52;;;;;;;21.42;9.95;;;;;;;6.15;84.74;101439.45;1696957;84;21067;-86
2021/11/06 02:53:18;;;;;;;19.02;10.05;;;;;;;6.12;84.73;101445.46;1697002;84;21018;-86
2021/11/06 02:55:44;;;;;;;19.20;10.45;;;;;;;6.10;84.73;101438.94;1739774;82;21047;-86
2021/11/06 02:58:11;;;;;;;19.23;10.35;;;;;;;6.07;84.73;101443.63;1739693;81;21019;-87
2021/11/06 03:00:38;;;;;;;19.50;10.05;;;;;;;6.02;84.73;101442.16;1739849;81;21019;-87
2021/11/06 03:03:04;;;;;;;25.68;10.23;;;;;;;6.01;84.74;101439.64;1739106;81;20975;-87
2021/11/06 03:05:30;;;;;;;18.92;10.75;;;;;;;5.97;84.73;101434.21;1739421;82;21063;-86
2021/11/06 03:07:58;;;;;;;23.38;10.58;;;;;;;5.95;84.73;101440.08;1739630;82;21015;-86
2021/11/06 03:10:24;;;;;;;19.12;10.48;;;;;;;5.92;84.76;101434.55;1739957;82;21023;-86
2021/11/06 03:12:50;;;;;;;20.48;10.60;;;;;;;5.89;84.76;101428.64;1739622;82;21520;-86
2021/11/06 03:15:16;;;;;;;21.70;10.70;;;;;;;5.87;84.77;101432.74;1739529;82;21034;-86
2021/11/06 03:17:42;;;;;;;20.12;10.88;;;;;;;5.86;84.76;101434.16;1739344;82;20987;-86
2021/11/06 03:20:10;;;;;;;21.60;10.58;;;;;;;5.86;84.78;101440.78;1739420;82;21495;-86
2021/11/06 03:22:36;;;;;;;21.40;11.35;;;;;;;5.84;84.79;101432.09;1739638;82;21598;-87
2021/11/06 03:25:04;;;;;;;22.42;11.18;;;;;;;5.83;84.80;101437.02;1739686;82;21765;-86
2021/11/06 03:27:30;;;;;;;22.62;11.55;;;;;;;5.80;84.81;101438.09;1739336;82;21042;-86
2021/11/06 03:29:56;;;;;;;19.15;10.95;;;;;;;5.79;84.82;101438.19;1739578;81;21033;-86
2021/11/06 03:32:22;;;;;;;26.23;12.33;;;;;;;5.79;84.83;101436.87;1739521;82;21047;-86
2021/11/06 03:34:47;;;;;;;20.68;10.75;;;;;;;5.79;84.86;101444.81;1739617;82;20892;-87
2021/11/06 03:37:13;;;;;;;28.12;12.47;;;;;;;5.75;84.87;101436.73;1739569;82;21141;-87
2021/11/06 03:39:39;;;;;;;22.67;10.93;;;;;;;5.73;84.88;101447.44;1739578;82;21042;-86
2021/11/06 03:42:06;;;;;;;24.57;11.03;;;;;;;5.70;84.89;101455.58;1739567;82;21645;-87
2021/11/06 03:44:33;;;;;;;22.35;11.15;;;;;;;5.69;84.91;101453.91;1739234;82;21519;-87
2021/11/06 03:46:59;;;;;;;19.98;11.88;;;;;;;5.71;84.91;101449.81;1739667;82;21015;-86
2021/11/06 03:49:25;;;;;;;20.80;11.85;;;;;;;5.69;84.93;101454.39;1739566;82;21124;-86
2021/11/06 03:51:51;;;;;;;23.10;11.40;;;;;;;5.68;84.96;101452.69;1739557;82;20987;-86
2021/11/06 03:54:17;;;;;;;19.75;11.53;;;;;;;5.66;84.95;101454.14;1739728;82;20983;-86
2021/11/06 03:56:43;;;;;;;17.90;10.98;;;;;;;5.67;84.98;101445.70;1739952;82;21467;-86
2021/11/06 03:59:09;;;;;;;26.82;12.90;;;;;;;5.66;84.98;101452.82;1708538;82;20995;-87
2021/11/06 04:01:35;;;;;;;19.80;10.82;;;;;;;5.64;85.02;101456.52;1739389;81;21092;-86
2021/11/06 04:04:05;;;;;;;25.88;12.45;;;;;;;5.63;85.02;101460.14;1739392;82;20995;-86
2021/11/06 04:06:31;;;;;;;21.03;9.57;;;;;;;5.60;85.02;101457.69;1739766;81;21027;-86
2021/11/06 04:08:57;;;;;;;26.60;13.28;;;;;;;5.59;85.04;101455.55;1739372;82;21023;-86
2021/11/06 04:11:23;;;;;;;21.33;12.45;;;;;;;5.58;85.06;101459.62;1739617;82;21083;-86
2021/11/06 04:13:49;;;;;;;23.38;12.23;;;;;;;5.56;85.09;101458.90;1739775;82;21039;-86
2021/11/06 04:16:15;;;;;;;22.35;11.93;;;;;;;5.54;85.09;101457.20;1739633;82;20984;-86
2021/11/06 04:18:41;;;;;;;22.27;10.82;;;;;;;5.53;85.11;101463.44;1739476;81;21007;-86
2021/11/06 04:21:07;;;;;;;19.42;11.50;;;;;;;5.53;85.11;101464.76;1739631;82;21352;-86
2021/11/06 04:23:33;;;;;;;21.42;11.05;;;;;;;5.54;85.12;101462.48;1739303;82;21078;-86
2021/11/06 04:25:59;;;;;;;24.50;12.43;;;;;;;5.53;85.12;101462.59;1739814;81;21191;-86
2021/11/06 04:28:25;;;;;;;24.82;11.95;;;;;;;5.50;85.16;101453.08;1739296;82;20970;-86
2021/11/06 04:30:51;;;;;;;20.75;11.43;;;;;;;5.50;85.18;101453.08;1739569;81;20983;-86
2021/11/06 04:33:17;;;;;;;19.80;11.55;;;;;;;5.49;85.18;101454.50;1743688;81;20948;-86
2021/11/06 04:35:43;;;;;;;29.98;13.13;;;;;;;5.48;85.22;101457.66;1770121;81;21034;-85
2021/11/06 04:38:09;;;;;;;25.27;12.90;;;;;;;5.47;85.21;101461.72;1770176;81;21051;-86
2021/11/06 04:40:36;;;;;;;25.45;11.85;;;;;;;5.44;85.23;101454.86;1726171;83;21504;-86
2021/11/06 04:43:01;;;;;;;24.55;12.98;;;;;;;5.44;85.24;101461.47;1765208;80;22062;-87
2021/11/06 04:45:28;;;;;;;24.90;11.75;;;;;;;5.45;85.27;101464.97;1739500;82;21003;-86
2021/11/06 04:47:54;;;;;;;30.35;13.30;;;;;;;5.44;85.29;101464.12;1739564;81;21023;-86
2021/11/06 04:50:20;;;;;;;25.92;11.75;;;;;;;5.44;85.30;101466.77;1707403;82;21087;-86
2021/11/06 04:52:46;;;;;;;25.57;12.60;;;;;;;5.44;85.30;101470.73;1740914;81;21004;-86
2021/11/06 04:55:14;;;;;;;21.73;12.47;;;;;;;5.43;85.31;101470.36;1770154;81;20984;-86
2021/11/06 04:57:41;;;;;;;22.32;12.63;;;;;;;5.43;85.32;101470.36;1770087;81;21082;-86
2021/11/06 05:00:09;;;;;;;26.90;13.68;;;;;;;5.44;85.33;101472.53;1770139;80;20996;-87
2021/11/06 05:02:35;;;;;;;19.80;11.90;;;;;;;5.44;85.36;101477.34;1765217;81;21559;-86
2021/11/06 05:05:01;;;;;;;24.95;12.23;;;;;;;5.45;85.35;101474.23;1739906;81;20896;-86
2021/11/06 05:07:27;;;;;;;23.77;12.20;;;;;;;5.48;85.37;101476.64;1766049;81;21058;-86
2021/11/06 05:09:53;;;;;;;23.92;11.40;;;;;;;5.51;85.39;101484.36;1725926;83;21106;-86
2021/11/06 05:12:19;;;;;;;19.85;11.48;;;;;;;5.52;85.41;101474.97;1768073;81;21527;-86
2021/11/06 05:14:49;;;;;;;22.15;12.13;;;;;;;5.52;85.42;101476.80;1749142;81;21129;-86
2021/11/06 05:17:16;;;;;;;24.02;11.68;;;;;;;5.51;85.44;101471.13;1739537;81;21535;-86
2021/11/06 05:19:43;;;;;;;25.92;12.10;;;;;;;5.50;85.45;101486.15;1739507;82;21007;-87
2021/11/06 05:22:10;;;;;;;25.75;11.53;;;;;;;5.49;85.48;101485.77;1747297;81;21042;-86
2021/11/06 05:24:36;;;;;;;18.92;11.48;;;;;;;5.50;85.50;101484.83;1770134;80;21477;-84
2021/11/06 05:27:22;;;;;;;21.85;11.15;;;;;;;5.52;85.51;101483.41;1764580;78;21485;-90
2021/11/06 05:29:48;;;;;;;22.75;11.28;;;;;;;5.52;85.52;101473.64;1789369;78;21018;-86
2021/11/06 05:32:14;;;;;;;20.12;11.03;;;;;;;5.53;85.51;101481.11;1793073;80;21545;-85
2021/11/06 05:34:40;;;;;;;25.70;11.78;;;;;;;5.52;85.54;101477.61;1790275;80;21541;-88
2021/11/06 05:37:06;;;;;;;27.05;11.85;;;;;;;5.52;85.53;101486.88;1792020;80;20959;-85
2021/11/06 05:39:32;;;;;;;20.88;11.43;;;;;;;5.53;85.56;101480.63;1732261;81;21143;-88
2021/11/06 05:42:00;;;;;;;27.20;12.45;;;;;;;5.55;85.55;101481.86;1738385;82;21085;-87
2021/11/06 05:44:26;;;;;;;19.92;12.18;;;;;;;5.56;85.57;101476.09;1738184;82;21461;-87
2021/11/06 05:46:52;;;;;;;23.92;13.05;;;;;;;5.57;85.57;101479.08;1744679;80;20951;-86
2021/11/06 05:49:19;;;;;;;24.32;11.80;;;;;;;5.58;85.59;101480.31;1754835;80;21086;-89
2021/11/06 05:51:45;;;;;;;22.40;11.43;;;;;;;5.59;85.60;101478.04;1754295;81;21807;-85
2021/11/06 05:54:13;;;;;;;20.85;11.03;;;;;;;5.61;85.59;101473.94;1770591;80;21084;-86
2021/11/06 05:56:39;;;;;;;21.75;10.35;;;;;;;5.61;85.61;101478.77;1773422;80;21468;-86
2021/11/06 05:59:05;;;;;;;25.80;10.95;;;;;;;5.63;85.62;101479.98;1773514;81;21492;-84
2021/11/06 06:01:31;;;;;;;27.15;11.33;;;;;;;5.65;85.63;101477.58;1757600;81;21641;-85
2021/11/06 06:03:57;;;;;;;20.17;11.05;;;;;;;5.68;85.63;101476.03;1772497;80;21155;-86
2021/11/06 06:06:23;;;;;;;22.52;11.38;;;;;;;5.74;85.64;101482.66;1757633;81;21069;-87
2021/11/06 06:08:49;;;;;;;21.93;10.58;;;;;;;5.79;85.62;101487.16;1757684;81;21011;-86
2021/11/06 06:11:15;;;;;;;21.25;11.35;;;;;;;5.83;85.64;101487.30;1773441;81;20975;-86
2021/11/06 06:13:41;;;;;;;23.55;10.43;;;;;;;5.85;85.64;101486.70;1758139;81;21003;-85
2021/11/06 06:16:07;;;;;;;19.37;10.08;;;;;;;5.88;85.65;101483.85;1774913;80;21127;-87
2021/11/06 06:18:33;;;;;;;18.50;10.03;;;;;;;5.94;85.66;101487.39;1759459;80;21504;-87
2021/11/06 06:20:59;;;;;;;19.10;9.90;;;;;;;5.98;85.64;101492.83;1762317;81;21643;-87
2021/11/06 06:23:25;;;;;;;17.57;9.28;;;;;;;6.02;85.65;101487.64;1761991;81;21043;-86
2021/11/06 06:25:51;;;;;;;18.77;9.70;;;;;;;6.08;85.64;101500.45;1761317;81;21021;-85
2021/11/06 06:28:18;;;;;;;16.73;9.78;;;;;;;6.19;85.63;101498.33;1752834;81;21136;-86
2021/11/06 06:30:44;;;;;;;20.43;10.30;;;;;;;6.29;85.61;101509.45;1750954;82;21242;-86
2021/11/06 06:33:11;;;;;;;21.37;10.40;;;;;;;6.34;85.56;101505.10;1733883;82;21038;-86
2021/11/06 06:35:37;;;;;;;16.45;9.83;;;;;;;6.36;85.54;101506.70;1729859;82;20987;-86
2021/11/06 06:38:03;;;;;;;24.32;10.15;;;;;;;6.43;85.56;101511.90;1721330;82;21084;-85
2021/11/06 06:40:30;;;;;;;20.77;11.25;;;;;;;6.45;85.55;101519.23;1712730;82;21054;-84
2021/11/06 06:42:56;;;;;;;21.52;10.18;;;;;;;6.44;85.55;101526.81;1719100;82;21035;-84
2021/11/06 06:45:22;;;;;;;16.07;9.55;;;;;;;6.43;85.55;101522.50;1713014;82;21026;-86
2021/11/06 06:47:49;;;;;;;17.57;9.45;;;;;;;6.42;85.56;101524.77;1721980;82;21022;-86
2021/11/06 06:50:15;;;;;;;17.30;10.00;;;;;;;6.41;85.54;101525.72;1704763;84;21000;-85
2021/11/06 06:52:41;;;;;;;20.25;10.20;;;;;;;6.41;85.51;101535.00;1721390;83;21713;-86
2021/11/06 06:55:08;;;;;;;19.40;9.83;;;;;;;6.42;85.51;101538.50;1710961;82;21110;-85
2021/11/06 06:57:34;;;;;;;19.00;9.70;;;;;;;6.42;85.47;101542.00;1732267;82;21023;-86
2021/11/06 07:00:03;;;;;;;20.82;10.68;;;;;;;6.43;85.43;101546.34;1720950;82;21532;-87
2021/11/06 07:02:29;;;;;;;35.73;16.87;;;;;;;6.44;85.40;101550.66;1706840;82;21579;-86
2021/11/06 07:04:55;;;;;;;20.27;10.60;;;;;;;6.45;85.36;101552.36;1721668;82;21153;-87
2021/11/06 07:07:21;;;;;;;15.85;9.40;;;;;;;6.47;85.35;101557.05;1701259;82;20913;-86
2021/11/06 07:09:47;;;;;;;20.80;10.65;;;;;;;6.49;85.31;101556.47;1715164;82;21022;-86
2021/11/06 07:12:13;;;;;;;21.27;9.60;;;;;;;6.52;85.30;101556.23;1722536;82;21166;-85
2021/11/06 07:14:40;;;;;;;16.90;10.30;;;;;;;6.53;85.29;101560.58;1727989;82;21002;-87
2021/11/06 07:17:06;;;;;;;17.50;10.40;;;;;;;6.61;85.25;101563.14;1734030;82;21593;-84
2021/11/06 07:19:32;;;;;;;18.25;9.98;;;;;;;6.69;85.24;101564.70;1738788;82;20931;-86
2021/11/06 07:21:57;;;;;;;20.77;12.10;;;;;;;6.76;85.21;101568.10;1715262;83;22199;-87
2021/11/06 07:24:24;;;;;;;31.82;17.90;;;;;;;6.82;85.19;101571.63;1696993;83;21118;-87
2021/11/06 07:26:50;;;;;;;27.60;13.40;;;;;;;6.92;85.17;101570.44;1734515;82;21471;-88
2021/11/06 07:29:16;;;;;;;21.50;10.90;;;;;;;7.01;85.12;101569.72;1729493;81;21153;-87
2021/11/06 07:31:42;;;;;;;18.95;10.45;;;;;;;7.08;85.11;101569.61;1746018;81;21029;-87
2021/11/06 07:34:09;;;;;;;17.70;9.93;;;;;;;7.15;85.07;101578.78;1754637;81;21028;-86
2021/11/06 07:36:35;;;;;;;20.27;10.23;;;;;;;7.18;85.05;101573.23;1740264;81;21453;-86
2021/11/06 07:39:01;;;;;;;15.88;9.70;;;;;;;7.23;84.98;101580.37;1729713;81;20988;-86
2021/11/06 07:41:27;;;;;;;18.95;10.28;;;;;;;7.23;84.96;101577.72;1739802;81;21619;-86
2021/11/06 07:43:54;;;;;;;20.75;10.65;;;;;;;7.27;84.94;101573.86;1732699;80;21000;-87
2021/11/06 07:46:21;;;;;;;24.20;12.25;;;;;;;7.38;84.90;101582.31;1729448;81;21445;-85
2021/11/06 07:48:48;;;;;;;16.17;9.20;;;;;;;7.45;84.87;101584.84;1732444;81;21492;-86
2021/11/06 07:51:15;;;;;;;18.82;8.98;;;;;;;7.46;84.79;101584.70;1752362;81;20997;-85
2021/11/06 07:53:41;;;;;;;23.42;11.12;;;;;;;7.43;84.70;101580.97;1730111;81;21182;-86
2021/11/06 07:56:07;;;;;;;15.95;9.53;;;;;;;7.44;84.69;101582.67;1739564;81;21023;-85
2021/11/06 07:58:33;;;;;;;19.30;11.50;;;;;;;7.47;84.68;101579.77;1736657;80;21033;-86
2021/11/06 08:01:00;;;;;;;20.17;12.25;;;;;;;7.52;84.58;101579.41;1757731;81;22713;-86
2021/11/06 08:03:27;;;;;;;22.82;12.28;;;;;;;7.53;84.54;101579.27;1758988;81;21070;-86
2021/11/06 08:05:53;;;;;;;20.10;11.73;;;;;;;7.56;84.49;101579.53;1741734;80;21054;-86
2021/11/06 08:08:19;;;;;;;21.57;10.03;;;;;;;7.67;84.46;101582.67;1729272;81;21040;-86
2021/11/06 08:10:45;;;;;;;18.40;9.35;;;;;;;7.74;84.40;101583.35;1735774;81;21276;-87
2021/11/06 08:13:12;;;;;;;16.10;9.48;;;;;;;7.84;84.34;101578.17;1759856;80;21019;-85
2021/11/06 08:15:38;;;;;;;17.37;9.10;;;;;;;7.97;84.29;101581.52;1758963;80;21011;-86
2021/11/06 08:18:04;;;;;;;23.70;10.10;;;;;;;8.02;84.20;101577.51;1758447;81;21334;-86
2021/11/06 08:20:31;;;;;;;21.57;8.78;;;;;;;8.09;84.12;101577.03;1759310;81;21039;-86
2021/11/06 08:22:57;;;;;;;17.57;9.60;;;;;;;8.11;84.04;101578.59;1739608;80;21497;-86
2021/11/06 08:25:23;;;;;;;19.75;8.45;;;;;;;8.12;83.97;101574.97;1750745;80;21083;-87
2021/11/06 08:27:52;;;;;;;14.53;7.72;;;;;;;8.12;83.90;101585.59;1739138;81;20981;-86
2021/11/06 08:30:21;;;;;;;13.53;7.35;;;;;;;8.10;83.81;101575.56;1758157;80;21578;-88
2021/11/06 08:32:48;;;;;;;14.68;7.85;;;;;;;8.08;83.73;101584.16;1741115;82;21010;-87
2021/11/06 08:35:14;;;;;;;15.48;7.28;;;;;;;8.11;83.64;101574.60;1759313;80;21024;-87
2021/11/06 08:37:40;;;;;;;13.68;7.37;;;;;;;8.13;83.59;101581.95;1763863;80;21564;-87
2021/11/06 08:40:08;;;;;;;12.95;7.10;;;;;;;8.21;83.54;101586.64;1766333;80;21057;-87
2021/11/06 08:42:35;;;;;;;14.50;6.58;;;;;;;8.32;83.50;101590.15;1756260;80;21082;-84
2021/11/06 08:45:06;;;;;;;13.68;7.00;;;;;;;8.43;83.41;101582.14;1773210;80;21561;-85
2021/11/06 08:47:32;;;;;;;13.98;7.42;;;;;;;8.48;83.31;101587.90;1770548;80;20994;-86
2021/11/06 08:49:58;;;;;;;10.63;6.25;;;;;;;8.58;83.24;101580.50;1740843;82;20896;-86
2021/11/06 08:52:24;;;;;;;12.90;7.03;;;;;;;8.64;83.10;101585.30;1742326;81;21497;-85
2021/11/06 08:54:50;;;;;;;12.40;7.37;;;;;;;8.65;82.97;101582.53;1752931;81;21865;-84
2021/11/06 08:57:19;;;;;;;12.60;5.87;;;;;;;8.70;82.87;101582.13;1742992;81;21068;-83
2021/11/06 08:59:48;;;;;;;22.20;8.45;;;;;;;8.72;82.78;101587.69;1744713;81;21091;-83
2021/11/06 09:02:13;;;;;;;11.93;6.60;;;;;;;8.69;82.60;101579.13;1743146;80;21082;-83
2021/11/06 09:04:39;;;;;;;11.28;6.47;;;;;;;8.73;82.51;101591.16;1738489;81;21554;-83
2021/11/06 09:07:05;;;;;;;14.53;6.17;;;;;;;8.73;82.34;101577.87;1761589;80;21926;-82
2021/11/06 09:09:32;;;;;;;14.53;6.15;;;;;;;8.73;82.19;101576.53;1760848;80;21514;-83
2021/11/06 09:11:58;;;;;;;16.20;7.45;;;;;;;8.76;82.07;101574.47;1729664;82;21010;-82
2021/11/06 09:14:27;;;;;;;15.30;6.22;;;;;;;8.82;81.96;101578.44;1724305;82;21018;-83
2021/11/06 09:16:54;;;;;;;10.23;5.37;;;;;;;8.91;81.86;101580.30;1763568;80;20955;-82
2021/11/06 09:19:19;;;;;;;8.83;4.78;;;;;;;8.99;81.75;101587.16;1741738;80;21330;-86
2021/11/06 09:21:46;;;;;;;8.95;4.17;;;;;;;9.09;81.62;101580.08;1742911;81;21007;-85
2021/11/06 09:24:13;;;;;;;12.23;5.72;;;;;;;9.14;81.45;101584.53;1749664;80;21018;-85
2021/11/06 09:26:42;;;;;;;11.50;5.25;;;;;;;9.25;81.32;101581.80;1770664;80;21493;-85
2021/11/06 09:29:09;;;;;;;14.30;4.87;;;;;;;9.38;81.17;101574.91;1757203;80;21661;-86
2021/11/06 09:31:35;;;;;;;9.85;4.78;;;;;;;9.49;81.02;101578.81;1725370;83;21490;-86
2021/11/06 09:34:02;;;;;;;9.13;5.30;;;;;;;9.65;80.88;101574.30;1724201;83;20975;-86
2021/11/06 09:36:28;;;;;;;13.50;4.72;;;;;;;9.76;80.67;101580.38;1741537;81;20991;-87
2021/11/06 09:38:54;;;;;;;13.83;4.35;;;;;;;9.84;80.41;101582.36;1752890;81;21763;-87
2021/11/06 09:41:21;;;;;;;9.88;3.85;;;;;;;9.92;80.18;101580.69;1750183;81;21069;-87
2021/11/06 09:43:47;;;;;;;8.85;3.45;;;;;;;9.98;79.92;101581.98;1747788;80;21112;-86
2021/11/06 09:46:14;;;;;;;13.68;2.70;;;;;;;9.91;79.48;101582.17;1724567;83;21062;-86
2021/11/06 09:48:43;;;;;;;5.28;3.05;;;;;;;9.91;79.17;101588.83;1761254;81;21015;-87
2021/11/06 09:51:10;;;;;;;10.68;3.52;;;;;;;9.87;78.83;101587.41;1727871;83;21056;-85
2021/11/06 09:53:40;;;;;;;8.13;3.22;;;;;;;9.81;78.62;101595.96;1721793;82;21044;-86
2021/11/06 09:56:08;;;;;;;10.80;4.58;;;;;;;9.74;78.37;101592.15;1735376;81;21240;-85
2021/11/06 09:58:35;;;;;;;11.65;4.60;;;;;;;9.74;78.20;101597.48;1733261;81;37806;-85
2021/11/06 10:01:02;;;;;;;10.78;4.58;;;;;;;9.73;78.04;101590.45;1750074;81;20942;-86
2021/11/06 10:03:28;;;;;;;10.35;4.10;;;;;;;9.77;77.93;101589.21;1753058;80;21019;-86
2021/11/06 10:06:00;;;;;;;11.57;2.40;;;;;;;9.85;77.77;101580.06;1725345;81;21515;-85
2021/11/06 10:08:36;;;;;;;16.70;10.23;;;;;;;9.92;77.53;101593.19;1750973;81;21099;-84
2021/11/06 10:11:09;;;;;;;7.75;3.02;;;;;;;9.98;77.32;101593.97;1754939;80;21571;-84
2021/11/06 10:13:58;;;;;;;11.75;3.17;;;;;;;10.09;77.12;101586.34;1750067;80;21086;-85
2021/11/06 10:16:43;;;;;;;6.35;2.98;;;;;;;10.16;76.80;101587.03;1751074;81;21568;-84
2021/11/06 10:19:16;;;;;;;7.87;2.87;;;;;;;10.21;76.56;101595.44;1763694;80;21011;-84
2021/11/06 10:21:51;;;;;;;8.60;3.10;;;;;;;10.17;76.33;101590.02;1756517;80;21761;-85
2021/11/06 10:24:21;;;;;;;7.58;2.40;;;;;;;10.13;76.16;101593.94;1749143;80;21024;-85
2021/11/06 10:26:48;;;;;;;12.73;2.42;;;;;;;10.20;76.03;101584.93;1744724;80;21602;-85
2021/11/06 10:29:16;;;;;;;4.70;2.05;;;;;;;10.26;75.85;101578.55;1726634;81;21895;-85
2021/11/06 10:32:00;;;;;;;6.00;2.58;;;;;;;10.36;75.67;101579.39;1753121;81;21661;-85
2021/11/06 10:34:29;;;;;;;5.47;1.85;;;;;;;10.45;75.28;101575.87;1737080;81;21138;-88
2021/11/06 10:37:01;;;;;;;4.87;2.20;;;;;;;10.56;75.07;101574.05;1738442;81;21018;-88
2021/11/06 10:39:27;;;;;;;6.25;2.42;;;;;;;10.59;74.92;101576.45;1723827;81;21081;-88
2021/11/06 10:41:53;;;;;;;7.53;3.25;;;;;;;10.53;74.64;101572.51;1748771;80;21023;-85
2021/11/06 10:44:20;;;;;;;4.95;2.65;;;;;;;10.42;74.25;101576.16;1720958;81;21074;-85
2021/11/06 10:46:52;;;;;;;6.25;3.80;;;;;;;10.32;73.83;101568.66;1751017;80;21115;-85
2021/11/06 10:49:37;;;;;;;7.70;3.77;;;;;;;10.35;73.63;101571.03;1750006;80;21072;-86
2021/11/06 10:52:07;;;;;;;4.95;2.67;;;;;;;10.38;73.36;101565.41;1747877;81;21724;-86
2021/11/06 10:54:33;;;;;;;8.40;3.33;;;;;;;10.40;73.20;101556.80;1775554;80;21026;-87
2021/11/06 10:57:03;;;;;;;6.40;2.52;;;;;;;10.35;72.99;101564.36;1766943;80;21672;-87
2021/11/06 10:59:28;;;;;;;6.62;2.80;;;;;;;10.22;72.73;101562.47;1761893;80;21136;-86
2021/11/06 11:01:55;;;;;;;6.37;2.70;;;;;;;10.15;72.59;101559.16;1725788;81;21040;-87
2021/11/06 11:04:23;;;;;;;4.35;2.10;;;;;;;10.14;72.42;101558.77;1755483;81;21051;-85
2021/11/06 11:06:54;;;;;;;6.58;3.12;;;;;;;10.12;72.26;101558.92;1723174;83;21550;-86
2021/11/06 11:09:30;;;;;;;8.35;3.22;;;;;;;10.18;72.24;101557.06;1746188;80;21050;-87
2021/11/06 11:12:03;;;;;;;10.43;3.85;;;;;;;10.15;72.00;101557.34;1724073;82;21101;-87
2021/11/06 11:14:31;;;;;;;7.65;2.95;;;;;;;10.14;71.98;101565.44;1751984;80;21080;-86
2021/11/06 11:17:02;;;;;;;7.78;3.90;;;;;;;10.17;72.04;101561.22;1751911;80;21055;-85